Weather at Olympia Heliport

Public forecast

Using degrees Fahrenheit for public forecast. Weather courtesy of forecast.io.

Closest aviation weather report (METAR) to Olympia Heliport

Closest report is Olympia Regional Airport, 0.6 nm (1.0 km) NW.

2024/07/16 18:54 (retrieved 47 minutes ago)

KOLM 161854Z 02006KT 10SM CLR 28/13 A3000 RMK AO2 SLP158 T02780133

Closest aviation forecast (TAF) to Olympia Heliport

Closest forecast is Olympia Regional Airport, 0.6 nm (1.0 km) NW.

2024/07/16 18:34 (retrieved 1 hour ago)

TAF KOLM 161732Z 1618/1718 03008KT P6SM SKC FM170900 20004KT P6SM BKN150 TEMPO 1712/1715 OVC010